Terminal Aerodrome Forecast
Issued by NWS

Home | Current Version | Previous Version | Text Only | Print | Product List | Glossary On
Versions: 1 2 3 4 5 6 7 8 9 10 11 12 13 14 15 16
000
FTUS43 KGRB 292332
TAFATW
TAF
KATW 292332Z 3000/3024 04012G18KT P6SM SKC
     FM300200 04010KT P6SM SKC
     FM300900 03010KT P6SM SCT015 BKN050
      TEMPO 3010/3014 BKN015
     FM301400 03013G20KT P6SM BKN015 OVC030 PROB30 3017/3021 4SM
      -SHRA
     FM302100 05013G20KT 5SM -SHRA BR SCT007 OVC015=

USA.gov is the U.S. government's official web portal to all federal, state and local government web resources and services.